sensor_id;sensor_type;location;lat;lon;timestamp;P1;durP1;ratioP1;P2;durP2;ratioP2
76935;SDS011;65881;52.438;16.744;2023-04-09T00:01:28;48.13;;;27.92;;
76935;SDS011;65881;52.438;16.744;2023-04-09T00:03:56;44.28;;;26.15;;
76935;SDS011;65881;52.438;16.744;2023-04-09T00:06:29;46.72;;;26.30;;
76935;SDS011;65881;52.438;16.744;2023-04-09T00:08:55;51.78;;;28.27;;
76935;SDS011;65881;52.438;16.744;2023-04-09T00:11:26;46.00;;;27.00;;
76935;SDS011;65881;52.438;16.744;2023-04-09T00:13:52;47.40;;;27.60;;
76935;SDS011;65881;52.438;16.744;2023-04-09T00:16:18;45.78;;;27.48;;
76935;SDS011;65881;52.438;16.744;2023-04-09T00:21:47;53.70;;;28.17;;
76935;SDS011;65881;52.438;16.744;2023-04-09T00:24:19;41.33;;;26.60;;
76935;SDS011;65881;52.438;16.744;2023-04-09T00:26:45;41.97;;;23.83;;
76935;SDS011;65881;52.438;16.744;2023-04-09T00:29:17;49.92;;;28.85;;
76935;SDS011;65881;52.438;16.744;2023-04-09T00:31:42;44.80;;;27.33;;
76935;SDS011;65881;52.438;16.744;2023-04-09T00:34:11;46.35;;;28.33;;
76935;SDS011;65881;52.438;16.744;2023-04-09T00:36:37;46.90;;;28.73;;
76935;SDS011;65881;52.438;16.744;2023-04-09T00:39:03;45.65;;;28.48;;
76935;SDS011;65881;52.438;16.744;2023-04-09T00:41:28;48.30;;;26.50;;
76935;SDS011;65881;52.438;16.744;2023-04-09T00:44:03;44.83;;;26.13;;
76935;SDS011;65881;52.438;16.744;2023-04-09T00:46:30;50.33;;;26.98;;
76935;SDS011;65881;52.438;16.744;2023-04-09T00:48:57;43.92;;;28.30;;
76935;SDS011;65881;52.438;16.744;2023-04-09T00:51:23;41.03;;;25.52;;
76935;SDS011;65881;52.438;16.744;2023-04-09T00:53:55;41.42;;;26.25;;
76935;SDS011;65881;52.438;16.744;2023-04-09T00:56:30;41.40;;;26.50;;
76935;SDS011;65881;52.438;16.744;2023-04-09T00:58:56;52.20;;;25.38;;
76935;SDS011;65881;52.438;16.744;2023-04-09T01:01:30;44.92;;;26.70;;
76935;SDS011;65881;52.438;16.744;2023-04-09T01:03:56;46.05;;;27.40;;
76935;SDS011;65881;52.438;16.744;2023-04-09T01:17:53;43.10;;;25.40;;
76935;SDS011;65881;52.438;16.744;2023-04-09T01:20:42;46.33;;;29.42;;
76935;SDS011;65881;52.438;16.744;2023-04-09T01:23:36;47.55;;;26.13;;
76935;SDS011;65881;52.438;16.744;2023-04-09T01:29:30;45.95;;;26.15;;
76935;SDS011;65881;52.438;16.744;2023-04-09T01:31:58;44.42;;;26.30;;
76935;SDS011;65881;52.438;16.744;2023-04-09T01:34:26;48.65;;;27.58;;
76935;SDS011;65881;52.438;16.744;2023-04-09T01:36:54;49.42;;;27.80;;
76935;SDS011;65881;52.438;16.744;2023-04-09T01:39:37;46.00;;;27.58;;
76935;SDS011;65881;52.438;16.744;2023-04-09T01:42:03;44.58;;;27.35;;
76935;SDS011;65881;52.438;16.744;2023-04-09T01:44:33;49.75;;;25.83;;
76935;SDS011;65881;52.438;16.744;2023-04-09T01:49:38;42.28;;;22.92;;
76935;SDS011;65881;52.438;16.744;2023-04-09T01:52:14;48.17;;;25.20;;
76935;SDS011;65881;52.438;16.744;2023-04-09T01:54:41;45.30;;;25.10;;
76935;SDS011;65881;52.438;16.744;2023-04-09T01:57:19;48.53;;;26.75;;
76935;SDS011;65881;52.438;16.744;2023-04-09T01:59:44;47.80;;;26.92;;
76935;SDS011;65881;52.438;16.744;2023-04-09T02:02:11;45.05;;;27.17;;
76935;SDS011;65881;52.438;16.744;2023-04-09T02:05:03;47.33;;;26.45;;
76935;SDS011;65881;52.438;16.744;2023-04-09T02:07:37;45.85;;;25.90;;
76935;SDS011;65881;52.438;16.744;2023-04-09T02:10:16;42.25;;;24.45;;
76935;SDS011;65881;52.438;16.744;2023-04-09T02:12:47;43.05;;;24.27;;
76935;SDS011;65881;52.438;16.744;2023-04-09T02:15:23;49.83;;;25.98;;
76935;SDS011;65881;52.438;16.744;2023-04-09T02:17:50;40.33;;;24.50;;
76935;SDS011;65881;52.438;16.744;2023-04-09T02:20:19;46.17;;;27.15;;
76935;SDS011;65881;52.438;16.744;2023-04-09T02:22:49;43.55;;;25.60;;
76935;SDS011;65881;52.438;16.744;2023-04-09T02:25:21;47.47;;;27.08;;
76935;SDS011;65881;52.438;16.744;2023-04-09T02:27:53;40.72;;;25.95;;
76935;SDS011;65881;52.438;16.744;2023-04-09T02:30:21;46.17;;;26.63;;
76935;SDS011;65881;52.438;16.744;2023-04-09T02:32:50;42.88;;;25.88;;
76935;SDS011;65881;52.438;16.744;2023-04-09T02:35:22;45.65;;;27.17;;
76935;SDS011;65881;52.438;16.744;2023-04-09T02:37:54;43.92;;;25.05;;
76935;SDS011;65881;52.438;16.744;2023-04-09T02:40:19;47.42;;;25.65;;
76935;SDS011;65881;52.438;16.744;2023-04-09T02:42:51;46.90;;;26.60;;
76935;SDS011;65881;52.438;16.744;2023-04-09T02:45:21;46.20;;;27.73;;
76935;SDS011;65881;52.438;16.744;2023-04-09T02:47:47;49.22;;;26.50;;
76935;SDS011;65881;52.438;16.744;2023-04-09T02:50:13;46.80;;;26.55;;
76935;SDS011;65881;52.438;16.744;2023-04-09T02:52:38;44.38;;;27.38;;
76935;SDS011;65881;52.438;16.744;2023-04-09T02:55:04;44.33;;;26.75;;
76935;SDS011;65881;52.438;16.744;2023-04-09T02:57:39;48.00;;;27.48;;
76935;SDS011;65881;52.438;16.744;2023-04-09T03:00:05;43.63;;;28.20;;
76935;SDS011;65881;52.438;16.744;2023-04-09T03:02:31;48.22;;;27.05;;
76935;SDS011;65881;52.438;16.744;2023-04-09T03:04:57;48.42;;;26.63;;
76935;SDS011;65881;52.438;16.744;2023-04-09T03:07:31;43.15;;;25.35;;
76935;SDS011;65881;52.438;16.744;2023-04-09T03:09:57;45.85;;;26.42;;
76935;SDS011;65881;52.438;16.744;2023-04-09T03:12:23;49.65;;;27.85;;
76935;SDS011;65881;52.438;16.744;2023-04-09T03:14:55;45.22;;;26.73;;
76935;SDS011;65881;52.438;16.744;2023-04-09T03:17:21;47.67;;;28.15;;
76935;SDS011;65881;52.438;16.744;2023-04-09T03:19:58;44.50;;;26.83;;
76935;SDS011;65881;52.438;16.744;2023-04-09T03:22:24;47.20;;;25.95;;
76935;SDS011;65881;52.438;16.744;2023-04-09T03:24:56;46.40;;;27.08;;
76935;SDS011;65881;52.438;16.744;2023-04-09T03:27:21;46.25;;;26.10;;
76935;SDS011;65881;52.438;16.744;2023-04-09T03:29:47;49.83;;;29.88;;
76935;SDS011;65881;52.438;16.744;2023-04-09T03:32:12;45.95;;;28.17;;
76935;SDS011;65881;52.438;16.744;2023-04-09T03:34:38;50.90;;;28.15;;
76935;SDS011;65881;52.438;16.744;2023-04-09T03:37:04;47.10;;;27.08;;
76935;SDS011;65881;52.438;16.744;2023-04-09T03:39:35;48.55;;;26.67;;
76935;SDS011;65881;52.438;16.744;2023-04-09T03:42:01;48.22;;;24.25;;
76935;SDS011;65881;52.438;16.744;2023-04-09T03:44:27;39.95;;;25.75;;
76935;SDS011;65881;52.438;16.744;2023-04-09T03:46:52;48.70;;;25.05;;
76935;SDS011;65881;52.438;16.744;2023-04-09T03:49:33;47.92;;;28.80;;
76935;SDS011;65881;52.438;16.744;2023-04-09T03:51:59;50.28;;;27.60;;
76935;SDS011;65881;52.438;16.744;2023-04-09T03:54:37;48.80;;;28.00;;
76935;SDS011;65881;52.438;16.744;2023-04-09T03:57:06;44.75;;;26.35;;
76935;SDS011;65881;52.438;16.744;2023-04-09T03:59:32;41.90;;;25.02;;
76935;SDS011;65881;52.438;16.744;2023-04-09T04:01:57;51.28;;;27.85;;
76935;SDS011;65881;52.438;16.744;2023-04-09T04:04:31;46.00;;;28.23;;
76935;SDS011;65881;52.438;16.744;2023-04-09T04:06:57;53.65;;;28.63;;
76935;SDS011;65881;52.438;16.744;2023-04-09T04:09:23;55.08;;;28.90;;
76935;SDS011;65881;52.438;16.744;2023-04-09T04:11:48;51.67;;;29.65;;
76935;SDS011;65881;52.438;16.744;2023-04-09T04:14:14;54.10;;;29.17;;
76935;SDS011;65881;52.438;16.744;2023-04-09T04:16:40;47.33;;;27.00;;
76935;SDS011;65881;52.438;16.744;2023-04-09T04:19:08;58.33;;;28.90;;
76935;SDS011;65881;52.438;16.744;2023-04-09T04:21:33;51.60;;;27.75;;
76935;SDS011;65881;52.438;16.744;2023-04-09T04:24:00;53.50;;;29.90;;
76935;SDS011;65881;52.438;16.744;2023-04-09T04:26:25;51.80;;;30.48;;
76935;SDS011;65881;52.438;16.744;2023-04-09T04:28:51;55.70;;;30.13;;
76935;SDS011;65881;52.438;16.744;2023-04-09T04:31:17;60.50;;;28.85;;
76935;SDS011;65881;52.438;16.744;2023-04-09T04:33:42;65.15;;;30.02;;
76935;SDS011;65881;52.438;16.744;2023-04-09T04:39:36;62.13;;;28.98;;
76935;SDS011;65881;52.438;16.744;2023-04-09T04:42:05;65.68;;;31.15;;
76935;SDS011;65881;52.438;16.744;2023-04-09T04:44:36;68.20;;;32.17;;
76935;SDS011;65881;52.438;16.744;2023-04-09T04:47:02;73.53;;;34.88;;
76935;SDS011;65881;52.438;16.744;2023-04-09T04:49:28;83.70;;;35.40;;
76935;SDS011;65881;52.438;16.744;2023-04-09T04:51:54;77.60;;;33.53;;
76935;SDS011;65881;52.438;16.744;2023-04-09T04:54:29;85.65;;;34.45;;
76935;SDS011;65881;52.438;16.744;2023-04-09T04:57:10;90.88;;;33.97;;
76935;SDS011;65881;52.438;16.744;2023-04-09T05:02:29;84.35;;;33.00;;
76935;SDS011;65881;52.438;16.744;2023-04-09T05:04:58;93.03;;;33.17;;
76935;SDS011;65881;52.438;16.744;2023-04-09T05:07:23;96.57;;;34.90;;
76935;SDS011;65881;52.438;16.744;2023-04-09T05:09:56;75.65;;;31.83;;
76935;SDS011;65881;52.438;16.744;2023-04-09T05:12:21;91.53;;;34.20;;
76935;SDS011;65881;52.438;16.744;2023-04-09T05:14:47;72.65;;;29.92;;
76935;SDS011;65881;52.438;16.744;2023-04-09T05:17:12;75.70;;;31.92;;
76935;SDS011;65881;52.438;16.744;2023-04-09T05:19:39;80.22;;;29.85;;
76935;SDS011;65881;52.438;16.744;2023-04-09T05:22:05;77.63;;;30.85;;
76935;SDS011;65881;52.438;16.744;2023-04-09T05:24:30;84.70;;;32.92;;
76935;SDS011;65881;52.438;16.744;2023-04-09T05:26:56;85.22;;;33.00;;
76935;SDS011;65881;52.438;16.744;2023-04-09T05:29:22;74.93;;;30.83;;
76935;SDS011;65881;52.438;16.744;2023-04-09T05:31:47;77.20;;;33.28;;
76935;SDS011;65881;52.438;16.744;2023-04-09T05:34:13;74.80;;;30.38;;
76935;SDS011;65881;52.438;16.744;2023-04-09T05:36:42;75.82;;;37.35;;
76935;SDS011;65881;52.438;16.744;2023-04-09T05:39:07;71.78;;;33.28;;
76935;SDS011;65881;52.438;16.744;2023-04-09T05:41:33;68.63;;;30.02;;
76935;SDS011;65881;52.438;16.744;2023-04-09T05:44:01;79.93;;;32.17;;
76935;SDS011;65881;52.438;16.744;2023-04-09T05:46:37;63.28;;;29.60;;
76935;SDS011;65881;52.438;16.744;2023-04-09T05:49:08;68.78;;;30.85;;
76935;SDS011;65881;52.438;16.744;2023-04-09T05:51:33;74.20;;;32.05;;
76935;SDS011;65881;52.438;16.744;2023-04-09T05:54:08;61.10;;;28.17;;
76935;SDS011;65881;52.438;16.744;2023-04-09T05:56:43;62.72;;;29.92;;
76935;SDS011;65881;52.438;16.744;2023-04-09T05:59:08;69.93;;;30.35;;
76935;SDS011;65881;52.438;16.744;2023-04-09T06:01:36;66.90;;;29.10;;
76935;SDS011;65881;52.438;16.744;2023-04-09T06:04:02;57.53;;;28.92;;
76935;SDS011;65881;52.438;16.744;2023-04-09T06:06:28;63.97;;;29.67;;
76935;SDS011;65881;52.438;16.744;2023-04-09T06:08:59;73.55;;;29.88;;
76935;SDS011;65881;52.438;16.744;2023-04-09T06:11:25;65.57;;;28.48;;
76935;SDS011;65881;52.438;16.744;2023-04-09T06:13:51;61.22;;;27.27;;
76935;SDS011;65881;52.438;16.744;2023-04-09T06:16:16;62.95;;;26.08;;
76935;SDS011;65881;52.438;16.744;2023-04-09T06:18:42;54.50;;;25.63;;
76935;SDS011;65881;52.438;16.744;2023-04-09T06:21:10;64.40;;;26.15;;
76935;SDS011;65881;52.438;16.744;2023-04-09T06:23:37;63.88;;;29.40;;
76935;SDS011;65881;52.438;16.744;2023-04-09T06:26:03;66.15;;;29.15;;
76935;SDS011;65881;52.438;16.744;2023-04-09T06:28:30;66.45;;;31.17;;
76935;SDS011;65881;52.438;16.744;2023-04-09T06:30:56;64.68;;;27.70;;
76935;SDS011;65881;52.438;16.744;2023-04-09T06:33:22;60.53;;;28.60;;
76935;SDS011;65881;52.438;16.744;2023-04-09T06:35:48;60.00;;;28.60;;
76935;SDS011;65881;52.438;16.744;2023-04-09T06:38:14;60.00;;;26.45;;
76935;SDS011;65881;52.438;16.744;2023-04-09T06:40:40;50.63;;;28.00;;
76935;SDS011;65881;52.438;16.744;2023-04-09T06:43:07;57.90;;;28.20;;
76935;SDS011;65881;52.438;16.744;2023-04-09T06:45:33;56.40;;;26.52;;
76935;SDS011;65881;52.438;16.744;2023-04-09T06:47:59;45.72;;;24.38;;
76935;SDS011;65881;52.438;16.744;2023-04-09T06:50:25;55.30;;;27.88;;
76935;SDS011;65881;52.438;16.744;2023-04-09T06:52:51;53.58;;;27.80;;
76935;SDS011;65881;52.438;16.744;2023-04-09T06:55:18;51.85;;;27.95;;
76935;SDS011;65881;52.438;16.744;2023-04-09T06:57:43;45.55;;;24.00;;
76935;SDS011;65881;52.438;16.744;2023-04-09T07:00:09;52.17;;;27.05;;
76935;SDS011;65881;52.438;16.744;2023-04-09T07:02:35;54.05;;;25.60;;
76935;SDS011;65881;52.438;16.744;2023-04-09T07:05:02;50.95;;;26.10;;
76935;SDS011;65881;52.438;16.744;2023-04-09T07:07:28;47.85;;;26.27;;
76935;SDS011;65881;52.438;16.744;2023-04-09T07:09:54;57.58;;;26.25;;
76935;SDS011;65881;52.438;16.744;2023-04-09T07:12:32;54.50;;;27.10;;
76935;SDS011;65881;52.438;16.744;2023-04-09T07:15:03;54.20;;;29.77;;
76935;SDS011;65881;52.438;16.744;2023-04-09T07:17:30;54.95;;;25.50;;
76935;SDS011;65881;52.438;16.744;2023-04-09T07:19:56;51.25;;;27.42;;
76935;SDS011;65881;52.438;16.744;2023-04-09T07:22:24;48.17;;;27.48;;
76935;SDS011;65881;52.438;16.744;2023-04-09T07:24:51;56.38;;;28.90;;
76935;SDS011;65881;52.438;16.744;2023-04-09T07:27:20;54.22;;;27.65;;
76935;SDS011;65881;52.438;16.744;2023-04-09T07:29:47;46.33;;;23.90;;
76935;SDS011;65881;52.438;16.744;2023-04-09T07:32:13;47.83;;;26.25;;
76935;SDS011;65881;52.438;16.744;2023-04-09T07:34:42;56.65;;;27.23;;
76935;SDS011;65881;52.438;16.744;2023-04-09T07:37:10;40.33;;;24.92;;
76935;SDS011;65881;52.438;16.744;2023-04-09T07:39:36;49.67;;;26.50;;
76935;SDS011;65881;52.438;16.744;2023-04-09T07:42:06;50.00;;;26.88;;
76935;SDS011;65881;52.438;16.744;2023-04-09T07:44:33;41.65;;;24.90;;
76935;SDS011;65881;52.438;16.744;2023-04-09T07:47:00;48.60;;;26.20;;
76935;SDS011;65881;52.438;16.744;2023-04-09T07:49:27;43.30;;;24.55;;
76935;SDS011;65881;52.438;16.744;2023-04-09T07:51:55;41.75;;;23.63;;
76935;SDS011;65881;52.438;16.744;2023-04-09T07:54:35;42.10;;;24.77;;
76935;SDS011;65881;52.438;16.744;2023-04-09T07:57:16;42.88;;;23.50;;
76935;SDS011;65881;52.438;16.744;2023-04-09T08:00:03;43.38;;;26.02;;
76935;SDS011;65881;52.438;16.744;2023-04-09T08:02:37;41.92;;;22.67;;
76935;SDS011;65881;52.438;16.744;2023-04-09T08:05:03;44.17;;;24.45;;
76935;SDS011;65881;52.438;16.744;2023-04-09T08:07:29;35.17;;;22.33;;
76935;SDS011;65881;52.438;16.744;2023-04-09T08:10:01;38.50;;;22.92;;
76935;SDS011;65881;52.438;16.744;2023-04-09T08:12:29;40.47;;;24.73;;
76935;SDS011;65881;52.438;16.744;2023-04-09T08:15:01;39.75;;;23.70;;
76935;SDS011;65881;52.438;16.744;2023-04-09T08:17:28;43.28;;;25.33;;
76935;SDS011;65881;52.438;16.744;2023-04-09T08:19:56;41.33;;;23.38;;
76935;SDS011;65881;52.438;16.744;2023-04-09T08:22:22;36.08;;;23.10;;
76935;SDS011;65881;52.438;16.744;2023-04-09T08:24:51;35.90;;;22.58;;
76935;SDS011;65881;52.438;16.744;2023-04-09T08:27:17;30.40;;;20.02;;
76935;SDS011;65881;52.438;16.744;2023-04-09T08:29:43;34.40;;;21.20;;
76935;SDS011;65881;52.438;16.744;2023-04-09T08:32:15;30.17;;;17.67;;
76935;SDS011;65881;52.438;16.744;2023-04-09T08:34:41;39.88;;;21.73;;
76935;SDS011;65881;52.438;16.744;2023-04-09T08:37:25;34.95;;;21.60;;
76935;SDS011;65881;52.438;16.744;2023-04-09T08:39:54;33.25;;;20.73;;
76935;SDS011;65881;52.438;16.744;2023-04-09T08:42:20;28.77;;;17.98;;
76935;SDS011;65881;52.438;16.744;2023-04-09T08:44:47;28.50;;;18.50;;
76935;SDS011;65881;52.438;16.744;2023-04-09T08:47:30;29.85;;;17.77;;
76935;SDS011;65881;52.438;16.744;2023-04-09T08:49:57;28.30;;;18.65;;
76935;SDS011;65881;52.438;16.744;2023-04-09T08:52:36;28.65;;;20.23;;
76935;SDS011;65881;52.438;16.744;2023-04-09T08:55:03;26.88;;;16.90;;
76935;SDS011;65881;52.438;16.744;2023-04-09T08:57:29;25.63;;;16.65;;
76935;SDS011;65881;52.438;16.744;2023-04-09T09:00:13;25.30;;;17.65;;
76935;SDS011;65881;52.438;16.744;2023-04-09T09:02:40;24.15;;;16.10;;
76935;SDS011;65881;52.438;16.744;2023-04-09T09:05:39;20.52;;;15.30;;
76935;SDS011;65881;52.438;16.744;2023-04-09T09:08:23;22.80;;;16.80;;
76935;SDS011;65881;52.438;16.744;2023-04-09T09:10:53;22.15;;;16.13;;
76935;SDS011;65881;52.438;16.744;2023-04-09T09:13:29;24.55;;;17.15;;
76935;SDS011;65881;52.438;16.744;2023-04-09T09:21:21;24.67;;;15.13;;
76935;SDS011;65881;52.438;16.744;2023-04-09T09:23:56;20.83;;;14.82;;
76935;SDS011;65881;52.438;16.744;2023-04-09T09:26:29;23.40;;;15.07;;
76935;SDS011;65881;52.438;16.744;2023-04-09T09:29:01;23.73;;;16.10;;
76935;SDS011;65881;52.438;16.744;2023-04-09T09:31:30;23.75;;;16.15;;
76935;SDS011;65881;52.438;16.744;2023-04-09T09:36:40;23.52;;;16.80;;
76935;SDS011;65881;52.438;16.744;2023-04-09T09:39:06;23.95;;;15.82;;
76935;SDS011;65881;52.438;16.744;2023-04-09T09:41:44;24.75;;;16.30;;
76935;SDS011;65881;52.438;16.744;2023-04-09T09:44:11;24.17;;;16.02;;
76935;SDS011;65881;52.438;16.744;2023-04-09T09:49:26;24.92;;;16.40;;
76935;SDS011;65881;52.438;16.744;2023-04-09T09:51:58;25.92;;;16.55;;
76935;SDS011;65881;52.438;16.744;2023-04-09T09:54:27;22.15;;;15.50;;
76935;SDS011;65881;52.438;16.744;2023-04-09T09:57:13;23.10;;;16.38;;
76935;SDS011;65881;52.438;16.744;2023-04-09T09:59:50;24.17;;;17.00;;
76935;SDS011;65881;52.438;16.744;2023-04-09T10:02:40;24.42;;;18.15;;
76935;SDS011;65881;52.438;16.744;2023-04-09T10:05:22;25.30;;;16.92;;
76935;SDS011;65881;52.438;16.744;2023-04-09T10:07:56;24.92;;;15.85;;
76935;SDS011;65881;52.438;16.744;2023-04-09T10:10:25;27.00;;;17.17;;
76935;SDS011;65881;52.438;16.744;2023-04-09T10:12:51;29.38;;;17.33;;
76935;SDS011;65881;52.438;16.744;2023-04-09T10:15:17;21.85;;;15.90;;
76935;SDS011;65881;52.438;16.744;2023-04-09T10:17:44;26.40;;;16.23;;
76935;SDS011;65881;52.438;16.744;2023-04-09T10:20:11;25.10;;;17.40;;
76935;SDS011;65881;52.438;16.744;2023-04-09T10:22:41;23.38;;;16.95;;
76935;SDS011;65881;52.438;16.744;2023-04-09T10:25:12;25.05;;;16.35;;
76935;SDS011;65881;52.438;16.744;2023-04-09T10:27:38;22.85;;;15.60;;
76935;SDS011;65881;52.438;16.744;2023-04-09T10:30:04;19.52;;;13.93;;
76935;SDS011;65881;52.438;16.744;2023-04-09T10:32:34;21.20;;;14.93;;
76935;SDS011;65881;52.438;16.744;2023-04-09T10:35:01;22.67;;;15.88;;
76935;SDS011;65881;52.438;16.744;2023-04-09T10:37:30;17.75;;;14.05;;
76935;SDS011;65881;52.438;16.744;2023-04-09T10:39:56;23.20;;;15.70;;
76935;SDS011;65881;52.438;16.744;2023-04-09T10:47:39;20.50;;;14.18;;
76935;SDS011;65881;52.438;16.744;2023-04-09T10:50:16;22.48;;;15.88;;
76935;SDS011;65881;52.438;16.744;2023-04-09T10:52:42;21.60;;;15.13;;
76935;SDS011;65881;52.438;16.744;2023-04-09T10:58:09;19.88;;;13.70;;
76935;SDS011;65881;52.438;16.744;2023-04-09T11:00:36;20.25;;;14.98;;
76935;SDS011;65881;52.438;16.744;2023-04-09T11:03:20;22.67;;;16.38;;
76935;SDS011;65881;52.438;16.744;2023-04-09T11:05:53;25.08;;;16.15;;
76935;SDS011;65881;52.438;16.744;2023-04-09T11:08:26;21.10;;;14.13;;
76935;SDS011;65881;52.438;16.744;2023-04-09T11:10:56;21.05;;;17.00;;
76935;SDS011;65881;52.438;16.744;2023-04-09T11:13:27;24.50;;;15.50;;
76935;SDS011;65881;52.438;16.744;2023-04-09T11:16:10;22.85;;;16.83;;
76935;SDS011;65881;52.438;16.744;2023-04-09T11:18:44;22.38;;;16.33;;
76935;SDS011;65881;52.438;16.744;2023-04-09T11:21:19;20.42;;;15.07;;
76935;SDS011;65881;52.438;16.744;2023-04-09T11:23:54;21.35;;;15.45;;
76935;SDS011;65881;52.438;16.744;2023-04-09T11:26:24;22.90;;;16.73;;
76935;SDS011;65881;52.438;16.744;2023-04-09T11:29:16;26.55;;;17.10;;
76935;SDS011;65881;52.438;16.744;2023-04-09T11:31:43;25.27;;;16.92;;
76935;SDS011;65881;52.438;16.744;2023-04-09T11:34:29;25.67;;;16.73;;
76935;SDS011;65881;52.438;16.744;2023-04-09T11:36:57;23.58;;;16.95;;
76935;SDS011;65881;52.438;16.744;2023-04-09T11:39:29;24.23;;;17.15;;
76935;SDS011;65881;52.438;16.744;2023-04-09T11:42:04;21.63;;;15.35;;
76935;SDS011;65881;52.438;16.744;2023-04-09T11:44:36;24.40;;;16.40;;
76935;SDS011;65881;52.438;16.744;2023-04-09T11:47:01;19.98;;;15.63;;
76935;SDS011;65881;52.438;16.744;2023-04-09T11:49:27;21.38;;;15.48;;
76935;SDS011;65881;52.438;16.744;2023-04-09T11:51:58;20.23;;;15.20;;
76935;SDS011;65881;52.438;16.744;2023-04-09T11:54:35;21.92;;;15.75;;
76935;SDS011;65881;52.438;16.744;2023-04-09T11:57:06;19.90;;;14.82;;
76935;SDS011;65881;52.438;16.744;2023-04-09T11:59:38;20.80;;;15.75;;
76935;SDS011;65881;52.438;16.744;2023-04-09T12:02:07;22.52;;;15.20;;
76935;SDS011;65881;52.438;16.744;2023-04-09T12:04:47;19.08;;;14.68;;
76935;SDS011;65881;52.438;16.744;2023-04-09T12:07:34;19.52;;;14.98;;
76935;SDS011;65881;52.438;16.744;2023-04-09T12:10:03;19.90;;;14.35;;
76935;SDS011;65881;52.438;16.744;2023-04-09T12:15:47;22.45;;;15.07;;
76935;SDS011;65881;52.438;16.744;2023-04-09T12:18:13;21.08;;;15.98;;
76935;SDS011;65881;52.438;16.744;2023-04-09T12:20:40;20.58;;;14.00;;
76935;SDS011;65881;52.438;16.744;2023-04-09T12:23:12;22.88;;;14.85;;
76935;SDS011;65881;52.438;16.744;2023-04-09T12:25:50;20.20;;;15.25;;
76935;SDS011;65881;52.438;16.744;2023-04-09T12:28:21;20.85;;;13.93;;
76935;SDS011;65881;52.438;16.744;2023-04-09T12:33:33;22.13;;;15.85;;
76935;SDS011;65881;52.438;16.744;2023-04-09T12:36:04;22.08;;;16.33;;
76935;SDS011;65881;52.438;16.744;2023-04-09T12:38:29;21.05;;;16.35;;
76935;SDS011;65881;52.438;16.744;2023-04-09T12:40:55;23.52;;;16.10;;
76935;SDS011;65881;52.438;16.744;2023-04-09T12:43:21;23.88;;;16.75;;
76935;SDS011;65881;52.438;16.744;2023-04-09T12:45:46;19.67;;;15.20;;
76935;SDS011;65881;52.438;16.744;2023-04-09T12:48:18;22.08;;;15.32;;
76935;SDS011;65881;52.438;16.744;2023-04-09T12:51:08;20.90;;;16.52;;
76935;SDS011;65881;52.438;16.744;2023-04-09T12:53:39;20.15;;;14.93;;
76935;SDS011;65881;52.438;16.744;2023-04-09T12:59:30;19.30;;;12.10;;
76935;SDS011;65881;52.438;16.744;2023-04-09T13:02:18;21.02;;;14.77;;
76935;SDS011;65881;52.438;16.744;2023-04-09T13:04:45;22.88;;;15.90;;
76935;SDS011;65881;52.438;16.744;2023-04-09T13:07:11;20.95;;;14.70;;
76935;SDS011;65881;52.438;16.744;2023-04-09T13:09:43;19.63;;;14.82;;
76935;SDS011;65881;52.438;16.744;2023-04-09T13:12:18;19.73;;;15.40;;
76935;SDS011;65881;52.438;16.744;2023-04-09T13:14:52;21.80;;;16.20;;
76935;SDS011;65881;52.438;16.744;2023-04-09T13:17:31;18.38;;;15.15;;
76935;SDS011;65881;52.438;16.744;2023-04-09T13:19:58;21.13;;;15.45;;
76935;SDS011;65881;52.438;16.744;2023-04-09T13:22:23;21.77;;;16.45;;
76935;SDS011;65881;52.438;16.744;2023-04-09T13:24:55;22.67;;;16.60;;
76935;SDS011;65881;52.438;16.744;2023-04-09T13:27:27;18.58;;;14.60;;
76935;SDS011;65881;52.438;16.744;2023-04-09T13:30:04;19.98;;;14.82;;
76935;SDS011;65881;52.438;16.744;2023-04-09T13:35:29;18.30;;;14.73;;
76935;SDS011;65881;52.438;16.744;2023-04-09T13:37:58;16.80;;;13.80;;
76935;SDS011;65881;52.438;16.744;2023-04-09T13:40:24;20.23;;;15.05;;
76935;SDS011;65881;52.438;16.744;2023-04-09T13:43:03;19.52;;;15.05;;
76935;SDS011;65881;52.438;16.744;2023-04-09T13:45:28;20.95;;;14.63;;
76935;SDS011;65881;52.438;16.744;2023-04-09T13:48:00;22.77;;;16.05;;
76935;SDS011;65881;52.438;16.744;2023-04-09T13:50:26;20.45;;;15.55;;
76935;SDS011;65881;52.438;16.744;2023-04-09T13:53:02;16.40;;;13.82;;
76935;SDS011;65881;52.438;16.744;2023-04-09T13:55:31;19.38;;;15.55;;
76935;SDS011;65881;52.438;16.744;2023-04-09T13:57:56;17.60;;;14.63;;
76935;SDS011;65881;52.438;16.744;2023-04-09T14:00:31;19.67;;;15.05;;
76935;SDS011;65881;52.438;16.744;2023-04-09T14:03:10;25.17;;;16.95;;
76935;SDS011;65881;52.438;16.744;2023-04-09T14:08:45;17.75;;;13.75;;
76935;SDS011;65881;52.438;16.744;2023-04-09T14:11:10;19.02;;;14.38;;
76935;SDS011;65881;52.438;16.744;2023-04-09T14:13:41;17.38;;;14.30;;
76935;SDS011;65881;52.438;16.744;2023-04-09T14:16:22;18.42;;;14.23;;
76935;SDS011;65881;52.438;16.744;2023-04-09T14:21:56;18.20;;;14.60;;
76935;SDS011;65881;52.438;16.744;2023-04-09T14:24:33;19.55;;;14.05;;
76935;SDS011;65881;52.438;16.744;2023-04-09T14:27:04;17.35;;;14.15;;
76935;SDS011;65881;52.438;16.744;2023-04-09T14:29:45;22.30;;;15.55;;
76935;SDS011;65881;52.438;16.744;2023-04-09T14:32:34;18.95;;;14.07;;
76935;SDS011;65881;52.438;16.744;2023-04-09T14:42:03;22.35;;;13.70;;
76935;SDS011;65881;52.438;16.744;2023-04-09T14:55:50;18.17;;;13.40;;
76935;SDS011;65881;52.438;16.744;2023-04-09T15:26:13;17.88;;;13.05;;
76935;SDS011;65881;52.438;16.744;2023-04-09T15:36:08;18.75;;;13.43;;
76935;SDS011;65881;52.438;16.744;2023-04-09T15:43:51;18.08;;;14.45;;
76935;SDS011;65881;52.438;16.744;2023-04-09T15:49:09;15.32;;;13.48;;
76935;SDS011;65881;52.438;16.744;2023-04-09T15:55:13;16.73;;;14.48;;
76935;SDS011;65881;52.438;16.744;2023-04-09T15:57:56;21.48;;;13.52;;
76935;SDS011;65881;52.438;16.744;2023-04-09T16:00:28;15.38;;;12.75;;
76935;SDS011;65881;52.438;16.744;2023-04-09T16:03:08;18.10;;;12.57;;
76935;SDS011;65881;52.438;16.744;2023-04-09T16:05:40;21.17;;;14.43;;
76935;SDS011;65881;52.438;16.744;2023-04-09T16:08:21;18.05;;;14.45;;
76935;SDS011;65881;52.438;16.744;2023-04-09T16:10:59;18.85;;;13.43;;
76935;SDS011;65881;52.438;16.744;2023-04-09T16:19:31;18.83;;;13.43;;
76935;SDS011;65881;52.438;16.744;2023-04-09T16:22:13;17.08;;;12.82;;
76935;SDS011;65881;52.438;16.744;2023-04-09T16:35:21;19.08;;;13.75;;
76935;SDS011;65881;52.438;16.744;2023-04-09T16:38:23;19.42;;;14.65;;
76935;SDS011;65881;52.438;16.744;2023-04-09T16:41:32;19.55;;;13.75;;
76935;SDS011;65881;52.438;16.744;2023-04-09T16:43:58;18.30;;;14.43;;
76935;SDS011;65881;52.438;16.744;2023-04-09T16:46:24;20.42;;;15.20;;
76935;SDS011;65881;52.438;16.744;2023-04-09T16:49:01;19.50;;;15.15;;
76935;SDS011;65881;52.438;16.744;2023-04-09T16:51:33;21.05;;;15.35;;
76935;SDS011;65881;52.438;16.744;2023-04-09T16:54:12;22.60;;;14.27;;